Time;durP1;ratioP1;P1;durP2;ratioP2;P2;SDS_P1;SDS_P2;PMS_P1;PMS_P2;Temp;Humidity;BMP_temperature;BMP_pressure;BME280_temperature;BME280_humidity;BME280_pressure;Samples;Min_cycle;Max_cycle;Signal;HPM_P1;HPM_P2
2023/03/09 00:00:34;;;;;;;8.30;3.00;;;10.50;99.90;;;;;;5008116;28;20210;-70
2023/03/09 00:03:00;;;;;;;7.20;3.10;;;10.50;99.90;;;;;;5011030;28;20482;-70
2023/03/09 00:05:26;;;;;;;4.33;3.10;;;10.50;99.90;;;;;;5009860;28;20452;-70
2023/03/09 00:07:55;;;;;;;10.10;3.87;;;10.50;99.90;;;;;;5010941;28;20222;-70
2023/03/09 00:10:21;;;;;;;3.40;2.70;;;10.50;99.90;;;;;;5009271;28;20229;-71
2023/03/09 00:12:47;;;;;;;4.57;2.20;;;10.50;99.90;;;;;;5010912;28;20444;-70
2023/03/09 00:15:12;;;;;;;6.60;2.33;;;10.50;99.90;;;;;;5010318;28;20441;-70
2023/03/09 00:17:38;;;;;;;4.47;1.63;;;10.40;99.90;;;;;;5010110;28;20183;-70
2023/03/09 00:20:17;;;;;;;2.20;1.70;;;10.30;99.90;;;;;;5005432;28;20280;-70
2023/03/09 00:22:46;;;;;;;2.23;1.50;;;10.30;99.90;;;;;;5010534;28;20253;-70
2023/03/09 00:25:13;;;;;;;2.30;1.60;;;10.30;99.90;;;;;;5007227;28;20508;-70
2023/03/09 00:27:40;;;;;;;2.63;1.57;;;10.20;99.90;;;;;;5010273;28;20509;-70
2023/03/09 00:30:06;;;;;;;2.23;1.40;;;10.10;99.90;;;;;;5007870;28;20499;-70
2023/03/09 00:32:32;;;;;;;1.60;1.37;;;10.10;99.90;;;;;;5008857;28;20433;-71
2023/03/09 00:34:57;;;;;;;2.07;1.60;;;10.10;99.90;;;;;;5009473;28;20630;-70
2023/03/09 00:37:23;;;;;;;2.23;1.40;;;10.00;99.90;;;;;;5010129;28;20277;-70
2023/03/09 00:39:48;;;;;;;2.03;1.67;;;10.00;99.90;;;;;;5010500;28;20696;-70
2023/03/09 00:42:14;;;;;;;5.83;1.43;;;10.00;99.90;;;;;;5009328;28;20233;-70
2023/03/09 00:44:39;;;;;;;1.80;1.07;;;9.90;99.90;;;;;;5010628;28;20202;-70
2023/03/09 00:47:05;;;;;;;1.73;1.27;;;9.90;99.90;;;;;;5008539;28;20174;-70
2023/03/09 00:49:30;;;;;;;4.50;1.10;;;9.90;99.40;;;;;;5010457;28;20648;-70
2023/03/09 00:51:56;;;;;;;1.20;0.90;;;9.80;99.40;;;;;;5008046;28;20179;-70
2023/03/09 00:54:22;;;;;;;3.03;1.20;;;9.80;99.90;;;;;;5010551;28;20190;-70
2023/03/09 00:56:47;;;;;;;1.30;0.90;;;9.90;99.40;;;;;;5008133;28;20216;-70
2023/03/09 00:59:13;;;;;;;2.23;1.10;;;9.80;99.90;;;;;;5010630;28;20696;-70
2023/03/09 01:01:39;;;;;;;1.33;1.07;;;9.80;99.90;;;;;;5009547;28;20214;-70
2023/03/09 01:04:05;;;;;;;2.70;1.20;;;9.80;99.90;;;;;;5008078;28;20209;-70
2023/03/09 01:06:31;;;;;;;1.47;1.00;;;9.90;99.90;;;;;;5010329;28;20429;-70
2023/03/09 01:08:56;;;;;;;1.27;1.17;;;9.90;99.90;;;;;;5009051;28;20179;-70
2023/03/09 01:11:22;;;;;;;3.10;1.20;;;9.90;99.90;;;;;;5008209;28;20212;-70
2023/03/09 01:13:48;;;;;;;1.87;1.03;;;9.90;99.90;;;;;;5008581;28;20269;-70
2023/03/09 01:16:14;;;;;;;2.63;1.10;;;9.30;99.90;;;;;;5007997;28;20536;-70
2023/03/09 01:18:40;;;;;;;1.83;1.00;;;9.90;99.90;;;;;;5009077;28;20186;-70
2023/03/09 01:21:06;;;;;;;2.53;0.97;;;9.90;99.90;;;;;;5008687;28;20441;-70
2023/03/09 01:23:32;;;;;;;1.67;1.00;;;9.90;99.90;;;;;;5006685;28;20548;-70
2023/03/09 01:25:57;;;;;;;1.17;0.93;;;9.90;99.90;;;;;;5007975;28;20521;-70
2023/03/09 01:28:23;;;;;;;1.30;0.90;;;9.90;99.90;;;;;;5008930;28;20613;-70
2023/03/09 01:30:49;;;;;;;2.37;1.13;;;10.00;98.90;;;;;;5008993;28;20229;-70
2023/03/09 01:33:14;;;;;;;1.23;1.00;;;9.90;97.30;;;;;;5007656;28;20665;-70
2023/03/09 01:35:40;;;;;;;1.30;0.97;;;9.90;94.00;;;;;;5008835;28;20201;-70
2023/03/09 01:38:06;;;;;;;1.50;1.13;;;9.90;96.80;;;;;;5007749;28;20285;-70
2023/03/09 01:40:33;;;;;;;1.30;1.20;;;9.90;94.70;;;;;;5009596;28;20727;-70
2023/03/09 01:43:01;;;;;;;2.03;1.10;;;9.90;98.50;;;;;;5008273;28;20462;-70
2023/03/09 01:45:27;;;;;;;2.20;1.30;;;9.90;99.40;;;;;;5009799;28;20429;-70
2023/03/09 01:47:56;;;;;;;2.00;1.20;;;9.90;99.40;;;;;;5005594;28;20483;-70
2023/03/09 01:50:25;;;;;;;3.80;1.10;;;9.90;99.50;;;;;;5009130;28;20202;-71
2023/03/09 01:52:53;;;;;;;1.40;1.30;;;10.00;99.00;;;;;;5008246;28;20447;-70
2023/03/09 01:55:24;;;;;;;7.53;1.40;;;9.90;99.50;;;;;;5008971;28;20510;-70
2023/03/09 01:57:57;;;;;;;2.57;1.30;;;10.00;98.90;;;;;;5008591;28;20868;-70
2023/03/09 02:00:24;;;;;;;1.33;1.23;;;10.00;98.90;;;;;;5008355;28;20457;-70
2023/03/09 02:02:58;;;;;;;2.03;1.20;;;10.00;96.50;;;;;;5007658;28;20855;-70
2023/03/09 02:05:30;;;;;;;1.77;1.17;;;10.10;99.90;;;;;;5008207;28;20452;-70
2023/03/09 02:07:57;;;;;;;1.43;1.20;;;10.10;99.00;;;;;;5008352;28;20467;-70
2023/03/09 02:10:29;;;;;;;1.30;1.10;;;10.10;96.10;;;;;;5009607;28;20487;-70
2023/03/09 02:13:01;;;;;;;1.90;1.57;;;10.10;99.10;;;;;;5008436;28;20453;-70
2023/03/09 02:15:26;;;;;;;2.83;1.40;;;10.20;93.90;;;;;;5008255;28;20483;-70
2023/03/09 02:17:52;;;;;;;2.30;1.40;;;10.20;94.80;;;;;;5008774;28;20457;-70
2023/03/09 02:20:31;;;;;;;1.63;1.50;;;10.30;95.20;;;;;;5009065;28;20218;-70
2023/03/09 02:22:56;;;;;;;1.97;1.30;;;10.30;94.20;;;;;;5008444;28;20214;-70
2023/03/09 02:25:22;;;;;;;1.63;1.37;;;10.30;91.10;;;;;;5008299;28;20441;-70
2023/03/09 02:27:50;;;;;;;4.37;1.40;;;10.40;86.50;;;;;;5007465;28;20198;-70
2023/03/09 02:30:16;;;;;;;3.83;1.70;;;10.40;92.60;;;;;;5005086;28;20446;-70
2023/03/09 02:32:41;;;;;;;3.97;1.70;;;10.30;94.10;;;;;;5009025;28;20436;-70
2023/03/09 02:35:09;;;;;;;4.33;1.60;;;10.30;98.30;;;;;;5006134;28;20857;-70
2023/03/09 02:37:38;;;;;;;5.00;1.70;;;10.20;99.00;;;;;;5009333;28;20236;-70
2023/03/09 02:40:15;;;;;;;3.67;1.87;;;10.20;99.90;;;;;;5007972;28;20468;-70
2023/03/09 02:42:43;;;;;;;5.67;1.80;;;10.20;99.10;;;;;;5009823;28;20943;-70
2023/03/09 02:45:11;;;;;;;6.63;2.07;;;10.20;99.90;;;;;;5011448;28;20449;-70
2023/03/09 02:47:38;;;;;;;3.33;1.53;;;10.20;99.90;;;;;;5012816;28;20432;-71
2023/03/09 02:50:06;;;;;;;3.17;1.50;;;10.10;99.90;;;;;;5011681;28;20446;-70
2023/03/09 02:52:31;;;;;;;2.03;1.30;;;10.10;99.90;;;;;;5010764;28;20429;-70
2023/03/09 02:54:57;;;;;;;1.60;1.40;;;10.10;99.90;;;;;;5012082;28;20448;-70
2023/03/09 02:57:22;;;;;;;2.87;1.50;;;10.10;99.90;;;;;;5011576;28;20191;-70
2023/03/09 02:59:48;;;;;;;2.07;1.50;;;10.10;99.90;;;;;;5010003;28;20596;-71
2023/03/09 03:02:13;;;;;;;1.70;1.40;;;10.10;99.90;;;;;;5012176;28;20206;-70
2023/03/09 03:04:39;;;;;;;3.00;1.23;;;10.00;99.90;;;;;;5010570;28;20278;-70
2023/03/09 03:07:05;;;;;;;1.90;1.30;;;10.00;99.90;;;;;;5010945;28;20183;-70
2023/03/09 03:09:30;;;;;;;5.20;1.37;;;10.00;99.90;;;;;;5011473;28;20719;-71
2023/03/09 03:11:56;;;;;;;5.23;1.10;;;10.00;99.90;;;;;;5012245;28;20186;-70
2023/03/09 03:14:22;;;;;;;1.53;1.10;;;10.00;99.90;;;;;;5011317;28;20249;-70
2023/03/09 03:16:47;;;;;;;2.47;1.10;;;9.90;99.90;;;;;;5012274;28;20465;-71
2023/03/09 03:19:13;;;;;;;2.70;1.00;;;9.90;99.90;;;;;;5010762;28;20200;-70
2023/03/09 03:21:38;;;;;;;2.70;1.10;;;9.90;99.90;;;;;;5012433;28;20287;-70
2023/03/09 03:24:04;;;;;;;3.57;1.13;;;9.80;99.90;;;;;;5010197;28;20218;-70
2023/03/09 03:26:30;;;;;;;1.93;1.00;;;9.70;99.90;;;;;;5011605;28;20191;-70
2023/03/09 03:28:55;;;;;;;1.77;1.23;;;9.70;99.90;;;;;;5006480;28;20183;-70
2023/03/09 03:31:21;;;;;;;3.90;1.03;;;9.70;99.90;;;;;;5011998;28;20209;-70
2023/03/09 03:33:46;;;;;;;2.07;1.03;;;9.70;99.90;;;;;;5008751;28;20752;-70
2023/03/09 03:36:12;;;;;;;2.13;1.20;;;9.60;99.90;;;;;;5011173;28;20416;-70
2023/03/09 03:38:37;;;;;;;1.57;1.10;;;9.60;99.90;;;;;;5009105;28;20203;-70
2023/03/09 03:41:03;;;;;;;4.20;1.20;;;9.60;99.90;;;;;;5009199;28;20210;-70
2023/03/09 03:43:28;;;;;;;1.70;1.10;;;9.60;99.90;;;;;;5009408;28;20218;-70
2023/03/09 03:45:54;;;;;;;2.27;1.23;;;9.60;99.90;;;;;;5011333;28;20313;-70
2023/03/09 03:48:19;;;;;;;2.50;1.27;;;9.60;99.90;;;;;;5011104;28;20550;-70
2023/03/09 03:50:45;;;;;;;1.50;1.20;;;9.60;99.90;;;;;;5010339;28;20218;-70
2023/03/09 03:53:11;;;;;;;5.80;1.20;;;9.60;99.90;;;;;;5007646;28;20183;-70
2023/03/09 03:55:36;;;;;;;1.47;0.90;;;9.60;99.90;;;;;;5011595;28;20185;-70
2023/03/09 03:58:02;;;;;;;1.10;0.90;;;9.60;99.90;;;;;;5010381;28;20549;-70
2023/03/09 04:00:27;;;;;;;3.90;1.23;;;9.60;99.90;;;;;;5010682;28;20625;-70
2023/03/09 04:02:53;;;;;;;5.47;1.10;;;9.60;99.90;;;;;;5010656;28;20554;-70
2023/03/09 04:05:18;;;;;;;2.63;1.33;;;9.60;99.90;;;;;;5010059;28;20175;-70
2023/03/09 04:07:44;;;;;;;2.10;0.93;;;9.60;99.90;;;;;;5009208;28;20210;-70
2023/03/09 04:10:10;;;;;;;1.20;0.93;;;9.60;99.90;;;;;;5010146;28;20281;-70
2023/03/09 04:12:36;;;;;;;1.87;0.90;;;9.60;99.90;;;;;;5010370;28;20179;-70
2023/03/09 04:15:01;;;;;;;1.43;1.07;;;9.60;99.90;;;;;;5010634;28;20187;-70
2023/03/09 04:17:27;;;;;;;1.30;1.00;;;9.60;99.90;;;;;;5009405;28;20245;-70
2023/03/09 04:19:52;;;;;;;3.03;1.23;;;9.60;99.90;;;;;;5011002;28;20268;-70
2023/03/09 04:22:19;;;;;;;1.93;1.30;;;9.60;99.90;;;;;;5009918;28;20191;-70
2023/03/09 04:24:48;;;;;;;2.57;1.10;;;9.60;99.90;;;;;;5010777;28;20202;-70
2023/03/09 04:27:13;;;;;;;3.00;1.20;;;9.60;99.90;;;;;;5008988;28;20437;-70
2023/03/09 04:29:39;;;;;;;4.90;1.20;;;9.50;99.90;;;;;;5006277;28;21002;-70
2023/03/09 04:32:05;;;;;;;1.20;1.00;;;9.50;99.90;;;;;;5009801;28;20185;-70
2023/03/09 04:34:30;;;;;;;3.73;1.30;;;9.60;99.30;;;;;;5009658;28;21046;-70
2023/03/09 04:36:56;;;;;;;5.17;1.63;;;12.10;99.90;;;;;;5008566;28;20186;-70
2023/03/09 04:39:21;;;;;;;2.80;1.03;;;9.60;99.30;;;;;;5009205;28;20186;-70
2023/03/09 04:41:47;;;;;;;3.20;1.20;;;9.60;99.30;;;;;;5008343;28;20564;-70
2023/03/09 04:44:12;;;;;;;1.73;1.07;;;9.60;99.30;;;;;;5009935;28;20240;-70
2023/03/09 04:46:38;;;;;;;1.87;1.10;;;9.60;99.30;;;;;;5009900;28;20202;-70
2023/03/09 04:49:03;;;;;;;2.40;1.50;;;9.60;99.20;;;;;;5009580;28;20187;-70
2023/03/09 04:51:29;;;;;;;3.53;1.40;;;9.60;99.30;;;;;;5009765;28;20213;-70
2023/03/09 04:53:55;;;;;;;5.27;1.97;;;9.60;98.50;;;;;;5009449;28;20196;-70
2023/03/09 04:56:21;;;;;;;4.80;1.70;;;9.50;99.20;;;;;;5008321;28;20584;-70
2023/03/09 04:58:46;;;;;;;9.27;1.90;;;9.60;99.10;;;;;;5010270;28;20186;-70
2023/03/09 05:01:12;;;;;;;3.93;1.60;;;9.60;99.20;;;;;;5007014;28;22122;-70
2023/03/09 05:03:38;;;;;;;6.20;2.03;;;9.60;99.30;;;;;;5009723;28;20195;-70
2023/03/09 05:06:03;;;;;;;2.87;1.60;;;9.50;95.10;;;;;;5008142;28;20444;-70
2023/03/09 05:08:29;;;;;;;5.10;1.80;;;9.50;94.40;;;;;;5010433;28;20747;-70
2023/03/09 05:10:54;;;;;;;4.77;2.00;;;9.50;99.10;;;;;;5009229;28;20285;-71
2023/03/09 05:13:20;;;;;;;8.97;1.87;;;9.50;89.10;;;;;;5009893;28;20554;-70
2023/03/09 05:15:45;;;;;;;4.33;2.07;;;9.50;83.10;;;;;;5006840;28;20728;-70
2023/03/09 05:18:11;;;;;;;3.60;2.00;;;9.50;87.70;;;;;;5008723;28;20207;-70
2023/03/09 05:20:38;;;;;;;5.73;1.80;;;9.50;92.70;;;;;;5009145;28;20202;-71
2023/03/09 05:23:03;;;;;;;4.07;1.90;;;9.50;85.80;;;;;;5009884;28;20218;-70
2023/03/09 05:25:30;;;;;;;10.60;2.07;;;9.40;82.40;;;;;;5007791;28;20900;-71
2023/03/09 05:27:55;;;;;;;5.03;1.73;;;9.40;80.70;;;;;;5005787;28;20178;-71
2023/03/09 05:30:21;;;;;;;6.50;2.37;;;9.40;65.50;;;;;;5004837;28;20465;-71
2023/03/09 05:32:49;;;;;;;6.70;2.13;;;9.30;57.70;;;;;;5009153;28;20182;-71
2023/03/09 05:35:18;;;;;;;5.00;2.23;;;9.40;59.70;;;;;;5008587;28;20182;-71
2023/03/09 05:37:44;;;;;;;10.87;2.30;;;9.30;73.00;;;;;;5010066;28;20421;-71
2023/03/09 05:40:10;;;;;;;5.57;1.93;;;9.30;64.90;;;;;;5007783;28;20500;-71
2023/03/09 05:42:36;;;;;;;4.50;2.00;;;9.40;57.00;;;;;;5010197;28;20513;-71
2023/03/09 05:45:04;;;;;;;3.30;1.80;;;9.40;60.50;;;;;;5006378;28;21038;-70
2023/03/09 05:47:29;;;;;;;11.60;2.23;;;9.50;44.60;;;;;;5009601;28;20182;-71
2023/03/09 05:49:55;;;;;;;4.77;1.87;;;9.60;38.50;;;;;;5008986;28;20453;-71
2023/03/09 05:52:20;;;;;;;8.53;2.60;;;9.70;38.60;;;;;;5009497;28;20182;-71
2023/03/09 05:54:46;;;;;;;5.30;2.43;;;9.80;38.60;;;;;;5008477;28;20239;-71
2023/03/09 05:57:12;;;;;;;9.20;2.50;;;10.10;37.90;;;;;;5006987;28;20183;-71
2023/03/09 05:59:39;;;;;;;5.73;2.50;;;9.90;33.70;;;;;;5009670;28;20201;-71
2023/03/09 06:02:04;;;;;;;9.87;2.40;;;10.00;27.50;;;;;;5007322;28;20479;-71
2023/03/09 06:04:30;;;;;;;9.23;2.23;;;10.00;28.40;;;;;;5006732;28;21084;-71
2023/03/09 06:06:56;;;;;;;5.57;1.90;;;9.90;35.10;;;;;;5009765;28;20184;-71
2023/03/09 06:09:22;;;;;;;7.80;1.70;;;9.90;38.60;;;;;;5005352;28;20209;-70
2023/03/09 06:11:47;;;;;;;7.50;1.60;;;9.90;38.60;;;;;;5008096;28;20310;-71
2023/03/09 06:14:13;;;;;;;5.40;1.60;;;9.90;38.70;;;;;;5008370;28;20678;-71
2023/03/09 06:16:39;;;;;;;5.00;1.60;;;9.90;38.80;;;;;;5008978;28;20688;-70
2023/03/09 06:19:04;;;;;;;7.50;2.20;;;9.90;38.60;;;;;;5010436;28;20652;-71
2023/03/09 06:21:30;;;;;;;5.07;1.80;;;9.90;38.60;;;;;;5013455;28;20212;-71
2023/03/09 06:23:56;;;;;;;7.60;1.63;;;9.90;38.60;;;;;;5012174;28;20222;-70
2023/03/09 06:26:22;;;;;;;5.13;1.90;;;9.90;38.70;;;;;;5009816;28;20251;-71
2023/03/09 06:28:47;;;;;;;5.37;1.90;;;9.80;38.60;;;;;;5009608;28;20423;-71
2023/03/09 06:31:15;;;;;;;6.10;1.80;;;9.80;38.70;;;;;;5010156;28;20576;-71
2023/03/09 06:33:42;;;;;;;4.33;1.80;;;9.90;38.70;;;;;;5010815;28;20187;-71
2023/03/09 06:36:12;;;;;;;5.80;1.70;;;9.90;38.60;;;;;;5011268;28;20439;-71
2023/03/09 06:38:38;;;;;;;6.90;1.97;;;10.00;37.90;;;;;;5012022;28;20433;-71
2023/03/09 06:41:03;;;;;;;9.93;2.43;;;9.90;38.80;;;;;;5012223;28;21021;-70
2023/03/09 06:43:29;;;;;;;6.83;1.47;;;9.70;38.60;;;;;;5012515;28;20264;-70
2023/03/09 06:45:54;;;;;;;6.70;1.90;;;9.70;38.60;;;;;;5009557;28;20189;-71
2023/03/09 06:48:20;;;;;;;6.90;1.97;;;9.70;38.60;;;;;;5012578;28;20673;-71
2023/03/09 06:50:48;;;;;;;5.20;1.87;;;9.60;38.60;;;;;;5009739;28;20199;-71
2023/03/09 06:53:14;;;;;;;12.23;2.60;;;9.70;38.70;;;;;;5011902;28;20553;-71
2023/03/09 06:55:39;;;;;;;7.30;2.20;;;9.70;42.80;;;;;;5008850;28;20444;-71
2023/03/09 06:58:05;;;;;;;16.00;2.87;;;9.60;49.10;;;;;;5009347;28;20486;-71
2023/03/09 07:00:31;;;;;;;4.47;1.93;;;9.60;51.30;;;;;;5010528;28;20301;-70
2023/03/09 07:02:57;;;;;;;9.80;1.97;;;9.60;49.70;;;;;;5008723;28;20182;-71
2023/03/09 07:05:22;;;;;;;5.20;2.20;;;9.60;51.10;;;;;;5011352;28;20186;-71
2023/03/09 07:07:48;;;;;;;11.30;3.17;;;9.70;54.40;;;;;;5009813;28;20883;-71
2023/03/09 07:10:14;;;;;;;5.50;2.30;;;9.70;54.40;;;;;;5011475;28;20225;-70
2023/03/09 07:12:40;;;;;;;11.10;2.73;;;9.70;62.10;;;;;;5012376;28;20261;-71
2023/03/09 07:15:08;;;;;;;6.13;2.27;;;9.80;55.80;;;;;;5011505;28;20874;-71
2023/03/09 07:17:34;;;;;;;7.80;2.53;;;9.80;54.40;;;;;;5011598;28;20186;-73
2023/03/09 07:19:59;;;;;;;6.83;2.10;;;9.80;54.90;;;;;;5009966;28;20507;-71
2023/03/09 07:22:25;;;;;;;13.90;2.70;;;9.80;53.70;;;;;;5010602;28;20194;-70
2023/03/09 07:24:51;;;;;;;14.10;2.43;;;9.90;53.40;;;;;;5008642;28;20442;-70
2023/03/09 07:27:18;;;;;;;6.57;2.60;;;9.90;54.70;;;;;;5009981;28;20820;-70
2023/03/09 07:29:44;;;;;;;5.63;2.20;;;9.90;43.90;;;;;;5005432;28;20179;-71
2023/03/09 07:32:10;;;;;;;9.80;2.17;;;10.00;44.30;;;;;;5011200;28;20440;-70
2023/03/09 07:34:36;;;;;;;11.33;2.63;;;10.00;46.60;;;;;;5006713;28;20229;-71
2023/03/09 07:37:01;;;;;;;10.93;2.57;;;10.00;44.90;;;;;;5006805;28;20677;-70
2023/03/09 07:39:27;;;;;;;6.10;2.07;;;10.00;51.60;;;;;;5009746;28;20565;-70
2023/03/09 07:41:52;;;;;;;10.43;2.50;;;10.00;47.30;;;;;;5011990;28;20183;-70
2023/03/09 07:44:18;;;;;;;9.00;2.23;;;10.00;48.70;;;;;;5010032;28;20221;-70
2023/03/09 07:46:44;;;;;;;8.93;2.40;;;9.90;51.90;;;;;;5008436;28;20419;-70
2023/03/09 07:49:09;;;;;;;8.70;2.13;;;10.00;56.60;;;;;;5004264;28;20635;-71
2023/03/09 07:51:37;;;;;;;9.70;2.93;;;10.00;58.10;;;;;;5011491;28;20569;-71
2023/03/09 07:54:05;;;;;;;9.53;2.53;;;10.10;56.00;;;;;;5008534;28;20190;-71
2023/03/09 07:56:31;;;;;;;12.70;2.87;;;10.10;54.40;;;;;;5009918;28;21766;-71
2023/03/09 07:58:56;;;;;;;5.40;2.27;;;10.10;54.80;;;;;;5010448;28;20433;-71
2023/03/09 08:01:23;;;;;;;5.93;2.13;;;10.10;54.20;;;;;;5009400;28;20480;-70
2023/03/09 08:03:49;;;;;;;4.23;2.30;;;10.10;56.30;;;;;;5009094;28;20203;-70
2023/03/09 08:06:15;;;;;;;8.13;2.30;;;10.20;60.70;;;;;;5008755;28;20552;-70
2023/03/09 08:08:40;;;;;;;13.53;2.87;;;10.10;58.90;;;;;;5010283;28;20175;-70
2023/03/09 08:11:07;;;;;;;6.70;2.10;;;10.10;63.60;;;;;;5011888;28;20452;-71
2023/03/09 08:13:33;;;;;;;6.87;2.30;;;10.20;58.80;;;;;;5010128;28;20186;-71
2023/03/09 08:16:05;;;;;;;7.43;2.73;;;10.10;58.00;;;;;;5009815;28;20437;-71
2023/03/09 08:18:31;;;;;;;12.43;3.00;;;10.20;59.70;;;;;;5008941;28;20433;-71
2023/03/09 08:21:11;;;;;;;12.50;2.33;;;10.20;59.70;;;;;;5010524;28;21169;-71
2023/03/09 08:23:39;;;;;;;8.80;2.40;;;10.20;59.60;;;;;;5009947;28;20289;-71
2023/03/09 08:26:06;;;;;;;9.00;2.70;;;10.20;63.10;;;;;;5011211;28;20480;-71
2023/03/09 08:28:32;;;;;;;13.77;2.37;;;10.20;69.00;;;;;;5009927;28;20437;-70
2023/03/09 08:30:58;;;;;;;9.53;2.30;;;10.20;69.70;;;;;;5011180;28;20452;-71
2023/03/09 08:33:24;;;;;;;6.07;2.03;;;10.20;64.60;;;;;;5009118;28;20217;-70
2023/03/09 08:35:49;;;;;;;6.03;2.47;;;10.20;63.10;;;;;;5007997;28;20872;-71
2023/03/09 08:38:15;;;;;;;6.93;2.20;;;10.20;61.10;;;;;;5008311;28;20183;-71
2023/03/09 08:40:41;;;;;;;7.73;2.20;;;10.20;64.70;;;;;;5007466;28;20253;-71
2023/03/09 08:43:06;;;;;;;7.40;2.23;;;10.30;62.40;;;;;;5006701;28;20183;-71
2023/03/09 08:45:32;;;;;;;6.43;1.93;;;10.30;67.60;;;;;;5007446;28;20190;-71
2023/03/09 08:47:57;;;;;;;10.67;3.30;;;10.40;64.20;;;;;;5011008;28;20175;-71
2023/03/09 08:50:23;;;;;;;7.83;2.53;;;10.40;65.30;;;;;;5008012;28;20206;-70
2023/03/09 08:52:48;;;;;;;11.93;2.33;;;10.50;59.90;;;;;;5009993;28;20182;-71
2023/03/09 08:55:14;;;;;;;6.10;2.00;;;10.40;54.90;;;;;;5009142;28;20324;-70
2023/03/09 08:57:39;;;;;;;3.87;1.93;;;10.40;54.30;;;;;;5009754;28;20182;-71
2023/03/09 09:00:08;;;;;;;7.03;2.20;;;10.30;57.60;;;;;;5008629;28;20218;-71
2023/03/09 09:02:33;;;;;;;5.23;1.80;;;10.30;52.80;;;;;;5007242;28;20664;-71
2023/03/09 09:04:59;;;;;;;7.37;1.83;;;10.30;53.40;;;;;;5009893;28;20460;-71
2023/03/09 09:07:25;;;;;;;4.60;1.67;;;10.30;51.10;;;;;;5010287;28;20245;-71
2023/03/09 09:09:50;;;;;;;10.97;2.27;;;10.30;41.30;;;;;;5006077;28;20203;-72
2023/03/09 09:12:16;;;;;;;9.27;2.00;;;10.30;46.80;;;;;;5008090;28;20261;-71
2023/03/09 09:14:42;;;;;;;7.17;1.83;;;10.40;38.60;;;;;;5008740;28;20182;-71
2023/03/09 09:17:08;;;;;;;5.30;1.97;;;10.50;38.40;;;;;;5008856;28;20182;-71
2023/03/09 09:19:38;;;;;;;7.73;2.43;;;10.60;36.30;;;;;;5008759;28;20454;-72
2023/03/09 09:22:04;;;;;;;9.23;2.13;;;10.60;38.50;;;;;;5010052;28;20491;-71
2023/03/09 09:24:36;;;;;;;13.47;2.50;;;10.60;38.50;;;;;;5009278;28;20836;-71
2023/03/09 09:27:06;;;;;;;6.43;2.37;;;10.60;38.50;;;;;;5004718;28;20179;-71
2023/03/09 09:29:33;;;;;;;8.37;2.67;;;10.70;38.50;;;;;;5006333;28;20426;-71
2023/03/09 09:31:58;;;;;;;13.13;2.40;;;10.70;38.60;;;;;;5008635;28;20440;-71
2023/03/09 09:34:24;;;;;;;9.37;2.33;;;10.80;33.30;;;;;;5008341;28;20528;-71
2023/03/09 09:36:50;;;;;;;11.37;1.90;;;10.80;34.30;;;;;;5007233;28;20512;-71
2023/03/09 09:39:16;;;;;;;9.10;2.30;;;10.90;38.60;;;;;;5006523;28;20182;-71
2023/03/09 09:41:50;;;;;;;10.50;2.70;;;10.90;26.30;;;;;;5002723;28;20573;-71
2023/03/09 09:44:23;;;;;;;4.23;1.77;;;11.00;27.70;;;;;;5001605;28;20213;-71
2023/03/09 09:46:50;;;;;;;7.60;2.30;;;11.10;17.30;;;;;;5009944;28;20429;-71
2023/03/09 09:49:23;;;;;;;7.97;1.83;;;11.20;16.60;;;;;;5007483;28;20478;-71
2023/03/09 09:52:12;;;;;;;5.77;1.70;;;11.40;14.60;;;;;;5013046;28;20528;-71
2023/03/09 09:54:50;;;;;;;7.23;2.20;;;11.40;7.00;;;;;;5015004;28;20417;-71
2023/03/09 09:57:16;;;;;;;6.23;2.03;;;11.60;11.70;;;;;;5014281;28;20451;-71
2023/03/09 10:00:04;;;;;;;7.30;2.40;;;11.70;5.20;;;;;;5011090;28;20531;-71
2023/03/09 10:02:44;;;;;;;5.80;1.90;;;11.70;8.40;;;;;;5015913;28;20221;-72
2023/03/09 10:05:19;;;;;;;3.27;1.73;;;11.80;2.80;;;;;;5013253;28;20472;-71
2023/03/09 10:07:45;;;;;;;8.03;1.80;;;11.80;1.00;;;;;;5012440;28;20416;-71
2023/03/09 10:10:24;;;;;;;9.80;2.30;;;11.90;1.00;;;;;;5014579;28;20538;-72
2023/03/09 10:12:50;;;;;;;5.30;1.70;;;11.90;2.90;;;;;;5007458;28;20188;-71
2023/03/09 10:15:28;;;;;;;5.63;2.00;;;12.00;1.00;;;;;;5012793;28;20461;-71
2023/03/09 10:18:16;;;;;;;5.10;1.80;;;12.00;1.00;;;;;;5012944;28;20183;-71
2023/03/09 10:20:52;;;;;;;7.80;2.13;;;12.10;1.00;;;;;;5006814;28;20471;-72
2023/03/09 10:23:21;;;;;;;3.43;1.77;;;12.50;1.00;;;;;;5015262;28;20472;-71
2023/03/09 10:25:51;;;;;;;5.87;1.90;;;13.00;1.00;;;;;;5016621;28;20429;-71
2023/03/09 10:28:19;;;;;;;6.43;2.27;;;13.20;1.00;;;;;;5012268;28;20511;-72
2023/03/09 10:30:59;;;;;;;4.67;1.90;;;13.60;1.00;;;;;;5009209;28;20471;-72
2023/03/09 10:33:30;;;;;;;4.23;1.83;;;15.00;1.00;;;;;;5011023;28;20444;-71
2023/03/09 10:36:06;;;;;;;7.50;2.10;;;16.60;1.00;;;;;;5012712;28;21033;-72
2023/03/09 10:38:33;;;;;;;5.87;1.60;;;17.90;1.00;;;;;;5014779;28;20448;-72
2023/03/09 10:40:58;;;;;;;3.03;1.60;;;17.00;1.00;;;;;;5013378;28;20468;-72
2023/03/09 10:43:30;;;;;;;4.50;1.83;;;17.20;1.00;;;;;;5014258;28;20504;-71
2023/03/09 10:46:21;;;;;;;9.27;2.00;;;17.30;1.00;;;;;;5007706;28;20249;-72
2023/03/09 10:48:48;;;;;;;4.30;1.93;;;17.70;1.00;;;;;;5003564;28;20428;-72
2023/03/09 10:51:28;;;;;;;8.70;2.33;;;19.50;1.00;;;;;;5012640;28;20473;-72
2023/03/09 10:53:56;;;;;;;7.57;2.17;;;21.30;1.00;;;;;;5015877;28;20443;-73
2023/03/09 10:56:22;;;;;;;6.13;2.43;;;21.90;1.00;;;;;;5014755;28;20465;-72
2023/03/09 10:59:03;;;;;;;9.23;2.17;;;20.90;1.00;;;;;;5015389;28;20518;-72
2023/03/09 11:01:29;;;;;;;7.73;2.20;;;20.70;1.00;;;;;;5012395;28;20518;-72
2023/03/09 11:03:55;;;;;;;7.10;1.90;;;19.60;1.00;;;;;;5011001;28;20496;-75
2023/03/09 11:06:33;;;;;;;6.83;2.07;;;19.30;1.00;;;;;;5010300;28;20572;-73
2023/03/09 11:09:14;;;;;;;7.63;2.10;;;18.30;1.00;;;;;;5012363;28;20684;-73
2023/03/09 11:11:41;;;;;;;7.77;2.10;;;17.50;1.00;;;;;;5012885;28;20441;-73
2023/03/09 11:14:29;;;;;;;6.70;1.93;;;18.00;1.00;;;;;;5012493;28;21129;-73
2023/03/09 11:16:57;;;;;;;6.90;2.27;;;18.20;1.00;;;;;;5000480;28;20450;-72
2023/03/09 11:19:23;;;;;;;10.30;1.90;;;17.80;1.00;;;;;;5007123;28;20816;-72
2023/03/09 11:21:51;;;;;;;7.13;1.87;;;17.20;1.00;;;;;;5012283;28;20883;-72
2023/03/09 11:24:18;;;;;;;5.50;1.67;;;16.50;1.00;;;;;;5011768;28;21014;-73
2023/03/09 11:26:50;;;;;;;7.83;1.73;;;16.00;1.00;;;;;;5012644;28;20839;-73
2023/03/09 11:29:29;;;;;;;5.40;1.90;;;15.40;1.00;;;;;;5007529;28;20474;-72
2023/03/09 11:31:55;;;;;;;4.57;1.63;;;15.30;1.00;;;;;;5001313;28;20584;-71
2023/03/09 11:34:32;;;;;;;3.23;1.50;;;15.60;1.00;;;;;;5000201;28;20456;-72
2023/03/09 11:37:17;;;;;;;5.40;1.70;;;16.60;1.00;;;;;;5007444;28;20452;-71
2023/03/09 11:40:10;;;;;;;3.50;1.70;;;18.60;1.00;;;;;;5011297;28;20520;-71
2023/03/09 11:42:38;;;;;;;10.00;2.00;;;17.80;1.00;;;;;;5006019;28;20445;-72
2023/03/09 11:45:12;;;;;;;7.50;1.80;;;17.10;1.00;;;;;;5000009;28;20483;-71
2023/03/09 11:47:43;;;;;;;3.60;1.70;;;17.30;1.00;;;;;;4994502;28;20456;-71
2023/03/09 11:50:24;;;;;;;6.07;1.70;;;17.50;1.00;;;;;;5008712;28;20458;-72
2023/03/09 11:52:54;;;;;;;8.97;2.33;;;17.60;1.00;;;;;;5010638;28;20441;-72
2023/03/09 11:55:24;;;;;;;5.77;1.90;;;17.60;1.00;;;;;;5010314;28;21022;-72
2023/03/09 11:57:54;;;;;;;4.80;1.73;;;18.00;1.00;;;;;;5009813;28;20429;-72
2023/03/09 12:00:21;;;;;;;4.57;1.80;;;18.30;1.00;;;;;;5011150;28;20975;-72
2023/03/09 12:03:05;;;;;;;3.27;1.47;;;18.10;1.00;;;;;;5011291;28;20944;-71
2023/03/09 12:05:38;;;;;;;2.83;1.47;;;18.60;1.00;;;;;;5007633;28;20454;-71
2023/03/09 12:08:16;;;;;;;4.57;1.57;;;18.80;1.00;;;;;;5006541;28;21022;-72
2023/03/09 12:10:57;;;;;;;5.80;1.80;;;18.70;1.00;;;;;;5004648;28;20859;-71
2023/03/09 12:13:33;;;;;;;3.17;1.30;;;19.20;1.00;;;;;;5010270;28;20449;-72
2023/03/09 12:16:02;;;;;;;4.03;1.43;;;20.50;1.00;;;;;;4999446;28;20978;-72
2023/03/09 12:18:30;;;;;;;3.30;1.20;;;21.40;1.00;;;;;;5009562;28;20532;-72
2023/03/09 12:20:59;;;;;;;4.00;1.50;;;20.50;1.00;;;;;;5010844;28;20519;-72
2023/03/09 12:23:37;;;;;;;3.90;1.20;;;18.90;1.00;;;;;;5009354;28;20559;-72
2023/03/09 12:26:24;;;;;;;2.93;1.13;;;18.10;1.00;;;;;;5020806;28;20432;-72
2023/03/09 12:29:26;;;;;;;2.83;1.50;;;18.00;1.00;;;;;;4985384;28;20566;-72
2023/03/09 12:32:23;;;;;;;3.40;1.40;;;17.90;1.00;;;;;;5007620;28;20421;-72
2023/03/09 12:34:51;;;;;;;4.13;1.40;;;17.20;1.00;;;;;;5005913;28;20465;-71
2023/03/09 12:37:28;;;;;;;5.27;1.50;;;16.30;1.00;;;;;;5009311;28;20512;-71
2023/03/09 12:39:59;;;;;;;6.30;1.47;;;15.40;1.00;;;;;;5011249;28;20456;-71
2023/03/09 12:42:37;;;;;;;5.87;1.50;;;15.00;1.00;;;;;;5009517;28;20451;-71
2023/03/09 12:45:24;;;;;;;3.43;1.20;;;15.10;1.00;;;;;;5011139;28;20536;-72
2023/03/09 12:48:15;;;;;;;3.00;1.33;;;15.20;1.00;;;;;;5006190;28;20958;-72
2023/03/09 12:50:46;;;;;;;3.60;1.50;;;15.40;1.00;;;;;;5008850;28;20453;-72
2023/03/09 12:53:24;;;;;;;3.73;1.40;;;15.30;1.00;;;;;;5009345;28;20861;-72
2023/03/09 12:55:55;;;;;;;2.43;1.20;;;15.00;1.00;;;;;;5018297;28;20432;-72
2023/03/09 12:58:21;;;;;;;3.33;1.50;;;14.80;1.00;;;;;;5009404;28;20471;-72